Time;durP1;ratioP1;P1;durP2;ratioP2;P2;SDS_P1;SDS_P2;PMS_P1;PMS_P2;Temp;Humidity;BMP_temperature;BMP_pressure;BME280_temperature;BME280_humidity;BME280_pressure;Samples;Min_cycle;Max_cycle;Signal;HPM_P1;HPM_P2
2023/10/08 00:01:41;;;;;;;2.00;1.50;;;;;;;22.26;39.85;95508.75;6018664;28;108958;-56
2023/10/08 00:04:45;;;;;;;1.50;1.20;;;;;;;22.27;39.83;95513.00;6008419;28;109043;-55
2023/10/08 00:07:48;;;;;;;1.93;1.50;;;;;;;22.27;40.41;95515.66;6018350;28;108932;-56
2023/10/08 00:10:57;;;;;;;1.90;1.35;;;;;;;22.28;40.04;95505.78;6017617;28;108912;-57
2023/10/08 00:14:01;;;;;;;1.90;1.30;;;;;;;22.26;39.79;95514.06;6018442;28;109073;-56
2023/10/08 00:17:04;;;;;;;1.67;1.27;;;;;;;22.24;39.78;95502.91;6008057;29;109126;-56
2023/10/08 00:20:15;;;;;;;1.70;1.20;;;;;;;22.22;40.19;95504.31;6018934;28;108883;-56
2023/10/08 00:23:19;;;;;;;1.80;1.30;;;;;;;22.24;39.95;95492.25;6018574;28;109010;-56
2023/10/08 00:26:27;;;;;;;1.90;1.42;;;;;;;22.24;40.25;95486.13;6016223;28;108961;-58
2023/10/08 00:29:31;;;;;;;1.52;1.15;;;;;;;22.23;40.31;95489.91;6012402;28;109062;-57
2023/10/08 00:32:36;;;;;;;1.70;1.20;;;;;;;22.24;40.34;95494.94;6018351;28;109050;-57
2023/10/08 00:35:41;;;;;;;2.10;1.35;;;;;;;22.24;40.00;95494.13;6017663;28;108994;-56
2023/10/08 00:38:45;;;;;;;1.80;1.30;;;;;;;22.24;40.29;95494.13;6008042;28;109272;-56
2023/10/08 00:41:50;;;;;;;1.60;1.20;;;;;;;22.23;39.57;95489.91;6016913;28;108904;-56
2023/10/08 00:44:54;;;;;;;1.88;1.20;;;;;;;22.14;39.83;95470.31;6018078;28;108896;-56
2023/10/08 00:47:58;;;;;;;1.90;1.38;;;;;;;22.22;39.84;95475.78;6017855;28;108917;-56
2023/10/08 00:51:16;;;;;;;1.80;1.20;;;;;;;22.22;40.30;95489.09;6007247;28;109134;-56
2023/10/08 00:54:20;;;;;;;1.60;1.10;;;;;;;22.17;40.04;95467.84;6018052;28;109084;-57
2023/10/08 00:57:29;;;;;;;2.00;1.50;;;;;;;22.20;39.94;95469.16;6017945;28;108942;-57
2023/10/08 01:00:42;;;;;;;1.70;1.20;;;;;;;22.19;39.55;95470.25;6013443;28;109059;-56
2023/10/08 01:03:49;;;;;;;1.65;1.23;;;;;;;22.20;39.79;95471.81;6011784;28;108938;-56
2023/10/08 01:06:55;;;;;;;1.50;1.10;;;;;;;22.20;40.04;95477.16;6017751;28;109049;-57
2023/10/08 01:10:00;;;;;;;1.65;1.15;;;;;;;22.19;39.91;95481.69;6017785;28;108967;-57
2023/10/08 01:13:12;;;;;;;1.50;1.10;;;;;;;22.20;39.74;95472.63;6006669;28;110000;-57
2023/10/08 01:16:18;;;;;;;1.90;1.23;;;;;;;22.17;39.70;95465.19;6017780;28;109453;-56
2023/10/08 01:19:21;;;;;;;1.70;1.10;;;;;;;22.19;39.94;95470.25;6017597;28;108966;-56
2023/10/08 01:22:29;;;;;;;1.70;1.30;;;;;;;22.18;39.59;95469.47;6017504;28;108922;-57
2023/10/08 01:25:34;;;;;;;1.60;1.10;;;;;;;22.18;40.16;95463.31;6006962;28;108835;-57
2023/10/08 01:28:37;;;;;;;1.50;1.08;;;;;;;22.17;39.82;95461.72;6017205;28;109007;-57
2023/10/08 01:31:41;;;;;;;1.50;1.10;;;;;;;22.14;40.08;95462.31;6017605;29;109147;-57
2023/10/08 01:34:46;;;;;;;1.30;0.90;;;;;;;22.16;40.10;95470.81;6011624;29;109157;-58
2023/10/08 01:37:52;;;;;;;1.40;1.00;;;;;;;22.16;39.83;95468.94;6011604;28;109019;-56
2023/10/08 01:40:56;;;;;;;1.70;1.10;;;;;;;22.15;40.05;95470.03;6017347;28;109118;-56
2023/10/08 01:44:00;;;;;;;1.50;1.00;;;;;;;22.06;39.99;95467.28;6016238;29;108948;-56
2023/10/08 01:47:04;;;;;;;1.50;1.10;;;;;;;22.14;40.14;95470.31;6006237;28;109030;-56
2023/10/08 01:50:21;;;;;;;1.67;1.17;;;;;;;22.11;39.81;95469.03;6017194;28;108757;-55
2023/10/08 01:53:26;;;;;;;1.80;1.30;;;;;;;22.14;39.76;95465.00;6016927;28;108989;-56
2023/10/08 01:56:30;;;;;;;1.50;1.20;;;;;;;22.13;39.58;95477.53;6016610;28;108898;-56
2023/10/08 01:59:33;;;;;;;1.70;1.20;;;;;;;22.11;39.62;95463.72;6005614;28;108943;-56
2023/10/08 02:02:37;;;;;;;1.70;1.20;;;;;;;22.10;39.72;95468.25;6016799;28;109032;-56
2023/10/08 02:05:42;;;;;;;1.58;1.25;;;;;;;22.11;39.73;95475.16;6017127;28;108942;-57
2023/10/08 02:08:47;;;;;;;1.60;1.00;;;;;;;22.08;39.35;95475.75;6011921;28;108907;-57
2023/10/08 02:11:53;;;;;;;1.60;1.20;;;;;;;22.10;39.93;95472.78;6010493;28;108982;-56
2023/10/08 02:14:56;;;;;;;1.67;1.20;;;;;;;22.08;39.88;95466.97;6016093;28;109306;-56
2023/10/08 02:18:00;;;;;;;1.90;1.20;;;;;;;22.07;40.10;95463.53;6016553;28;109101;-57
2023/10/08 02:21:05;;;;;;;1.75;1.10;;;;;;;22.07;39.62;95471.50;6005598;29;109045;-57
2023/10/08 02:24:11;;;;;;;1.67;0.90;;;;;;;22.07;39.72;95458.19;6016247;28;108878;-57
2023/10/08 02:27:15;;;;;;;1.90;1.40;;;;;;;22.07;40.06;95460.84;6015975;29;109061;-56
2023/10/08 02:30:18;;;;;;;1.63;1.20;;;;;;;22.07;40.15;95458.19;6016143;28;108939;-56
2023/10/08 02:33:22;;;;;;;1.75;1.00;;;;;;;22.06;40.10;95456.59;6005529;28;109519;-57
2023/10/08 02:36:26;;;;;;;1.92;1.30;;;;;;;22.05;39.69;95457.69;6016068;28;109119;-58
2023/10/08 02:39:31;;;;;;;1.77;1.47;;;;;;;22.03;40.05;95446.53;6016041;28;109203;-57
2023/10/08 02:42:34;;;;;;;1.50;1.20;;;;;;;22.04;39.58;95458.78;6016167;29;109014;-57
2023/10/08 02:45:39;;;;;;;1.65;1.13;;;;;;;22.05;40.12;95454.25;6005352;28;109176;-57
2023/10/08 02:48:42;;;;;;;1.70;1.30;;;;;;;22.05;39.48;95438.25;6015750;28;109086;-56
2023/10/08 02:51:45;;;;;;;1.90;1.50;;;;;;;22.04;39.84;95442.00;6015710;28;109026;-58
2023/10/08 02:54:52;;;;;;;2.00;1.50;;;;;;;22.03;39.80;95451.09;6006900;28;108896;-61
2023/10/08 02:57:57;;;;;;;1.90;1.50;;;;;;;21.96;39.73;95438.13;6015069;28;109048;-57
2023/10/08 03:01:00;;;;;;;2.10;1.38;;;;;;;22.02;39.66;95449.50;6016122;29;108976;-57
2023/10/08 03:04:14;;;;;;;1.58;1.10;;;;;;;22.02;39.69;95452.97;6015802;28;108883;-57
2023/10/08 03:07:22;;;;;;;1.70;1.40;;;;;;;22.01;39.43;95454.03;6005300;28;109017;-57
2023/10/08 03:10:33;;;;;;;1.75;1.40;;;;;;;21.99;39.81;95458.06;5992796;29;109015;-57
2023/10/08 03:13:38;;;;;;;1.80;1.42;;;;;;;22.01;40.02;95455.91;6002113;29;108947;-57
2023/10/08 03:16:42;;;;;;;1.70;1.30;;;;;;;22.02;39.59;95457.50;6014487;28;109013;-57
2023/10/08 03:19:45;;;;;;;1.90;1.60;;;;;;;22.00;39.69;95443.66;6006156;28;108952;-56
2023/10/08 03:22:49;;;;;;;1.80;1.50;;;;;;;21.99;39.52;95445.53;6015688;29;109120;-57
2023/10/08 03:26:01;;;;;;;1.70;1.40;;;;;;;22.00;39.81;95451.66;6015710;28;108931;-57
2023/10/08 03:29:08;;;;;;;2.00;1.50;;;;;;;21.99;39.98;95448.19;6005959;28;109884;-57
2023/10/08 03:32:15;;;;;;;1.90;1.40;;;;;;;21.90;39.48;95431.31;6019263;28;108932;-56
2023/10/08 03:35:27;;;;;;;1.90;1.60;;;;;;;21.99;39.72;95450.06;6007969;28;108834;-57
2023/10/08 03:38:44;;;;;;;2.00;1.80;;;;;;;21.98;39.56;95446.63;6003276;29;108994;-57
2023/10/08 03:42:05;;;;;;;1.80;1.40;;;;;;;21.96;39.40;95443.47;6009055;28;108785;-57
2023/10/08 03:45:16;;;;;;;2.05;1.40;;;;;;;21.92;39.47;95450.47;6018870;29;109158;-56
2023/10/08 03:48:22;;;;;;;2.20;1.60;;;;;;;21.96;39.70;95443.47;6018334;28;108915;-57
2023/10/08 03:51:27;;;;;;;1.90;1.50;;;;;;;21.96;39.95;95440.78;6013470;28;109016;-57
2023/10/08 03:54:34;;;;;;;1.90;1.50;;;;;;;21.97;39.57;95436.25;6014425;28;109073;-57
2023/10/08 03:57:42;;;;;;;2.00;1.70;;;;;;;21.94;39.40;95429.66;6018805;28;108897;-57
2023/10/08 04:00:46;;;;;;;1.70;1.50;;;;;;;21.94;39.64;95420.88;6019029;28;108896;-57
2023/10/08 04:04:01;;;;;;;1.77;1.50;;;;;;;21.94;39.81;95415.53;6007374;28;108928;-57
2023/10/08 04:11:05;;;;;;;1.88;1.60;;;;;;;21.95;39.53;95425.09;6018262;28;109304;-57
2023/10/08 04:14:00;;;;;;;2.10;1.60;;;;;;;21.94;39.27;95420.88;6013218;28;108998;-57
2023/10/08 04:17:03;;;;;;;2.40;2.00;;;;;;;21.93;39.63;95420.06;6012894;28;108848;-57
2023/10/08 04:20:30;;;;;;;2.00;1.50;;;;;;;21.94;39.64;95426.19;6017248;28;108947;-57
2023/10/08 04:23:36;;;;;;;2.10;1.60;;;;;;;21.94;39.50;95419.00;6018090;28;109010;-57
2023/10/08 04:26:40;;;;;;;1.90;1.42;;;;;;;21.93;39.23;95425.41;6008187;28;109000;-57
2023/10/08 04:29:49;;;;;;;1.77;1.47;;;;;;;21.91;39.44;95424.91;6018075;28;108915;-56
2023/10/08 04:32:53;;;;;;;2.40;1.60;;;;;;;21.54;39.31;95356.56;6018268;29;108959;-56
2023/10/08 04:35:56;;;;;;;2.20;1.60;;;;;;;21.89;39.81;95412.97;6017649;28;109200;-55
2023/10/08 04:39:05;;;;;;;2.00;1.50;;;;;;;21.90;39.06;95419.88;6007087;28;109198;-58
2023/10/08 04:42:10;;;;;;;2.15;1.70;;;;;;;21.90;39.80;95423.34;6017469;28;108957;-56
2023/10/08 04:45:19;;;;;;;1.90;1.50;;;;;;;21.90;39.30;95427.88;6018002;28;109140;-56
2023/10/08 04:48:24;;;;;;;2.00;1.60;;;;;;;21.89;39.32;95432.41;6010711;28;108888;-58
2023/10/08 04:51:34;;;;;;;2.20;1.52;;;;;;;21.89;39.40;95428.97;6016042;28;108972;-56
2023/10/08 04:54:40;;;;;;;2.70;1.70;;;;;;;21.81;39.46;95422.38;5995021;29;109019;-56
2023/10/08 04:57:43;;;;;;;2.10;1.80;;;;;;;21.87;39.46;95431.91;6004323;29;108922;-57
2023/10/08 05:00:59;;;;;;;1.98;1.50;;;;;;;21.88;39.60;95433.50;5995666;28;109192;-57
2023/10/08 05:04:23;;;;;;;1.98;1.70;;;;;;;21.88;39.77;95435.38;6013519;29;108918;-57
2023/10/08 05:08:00;;;;;;;2.20;1.80;;;;;;;21.81;39.26;95425.84;6017688;29;108838;-56
2023/10/08 05:11:15;;;;;;;2.00;1.70;;;;;;;21.89;39.33;95443.06;6012121;28;108805;-56
2023/10/08 05:14:34;;;;;;;2.10;1.70;;;;;;;21.88;39.52;95443.38;6016664;28;108959;-56
2023/10/08 05:17:56;;;;;;;2.30;1.70;;;;;;;21.89;39.40;95442.28;6017419;28;109210;-56
2023/10/08 05:21:16;;;;;;;1.80;1.50;;;;;;;21.88;39.16;95438.03;6017077;28;109030;-56
2023/10/08 05:24:27;;;;;;;2.40;2.08;;;;;;;21.88;39.52;95443.38;6005759;28;109268;-57
2023/10/08 05:27:37;;;;;;;2.80;1.80;;;;;;;21.86;39.39;95435.66;6017072;28;108941;-56
2023/10/08 05:30:53;;;;;;;2.20;1.70;;;;;;;21.86;39.38;95437.53;6017201;28;109063;-56
2023/10/08 05:34:14;;;;;;;3.30;1.90;;;;;;;21.86;39.10;95446.31;6006244;29;109301;-57
2023/10/08 05:41:16;;;;;;;2.58;1.77;;;;;;;21.86;39.53;95441.00;6361536;27;108878;-58
2023/10/08 05:44:39;;;;;;;2.38;1.90;;;;;;;21.85;39.60;95443.97;6336147;27;108981;-56
2023/10/08 05:48:06;;;;;;;2.10;1.70;;;;;;;21.88;39.16;95451.34;6334010;27;109904;-56
2023/10/08 05:51:13;;;;;;;2.30;1.70;;;;;;;21.86;39.46;95443.66;6358892;27;109194;-56
2023/10/08 05:54:35;;;;;;;2.43;2.10;;;;;;;21.90;39.47;95463.31;6358266;27;108933;-56
2023/10/08 05:57:40;;;;;;;2.70;2.00;;;;;;;21.88;39.26;95454.81;6347016;27;110356;-58
2023/10/08 06:00:46;;;;;;;2.60;1.83;;;;;;;21.94;39.28;95452.84;6359009;27;110035;-57
2023/10/08 06:04:00;;;;;;;1.90;1.50;;;;;;;21.96;39.31;95448.00;6357646;27;108860;-57
2023/10/08 06:07:12;;;;;;;1.77;1.48;;;;;;;22.04;39.09;95447.34;6358472;27;109115;-56
2023/10/08 06:10:41;;;;;;;2.17;1.77;;;;;;;22.09;39.43;95450.69;6347786;27;109077;-56
2023/10/08 06:13:55;;;;;;;1.80;1.40;;;;;;;22.18;38.76;95452.66;6357898;27;109805;-57
2023/10/08 06:17:13;;;;;;;2.10;1.30;;;;;;;22.27;38.80;95450.88;6357841;27;109173;-58
2023/10/08 06:20:22;;;;;;;2.10;1.50;;;;;;;22.37;38.66;95442.69;6321447;27;109240;-58
2023/10/08 06:23:28;;;;;;;1.95;1.60;;;;;;;22.48;38.56;95451.25;6332128;27;108565;-58
2023/10/08 06:26:34;;;;;;;1.90;1.40;;;;;;;22.60;38.71;95441.72;6332090;27;108884;-57
2023/10/08 06:29:44;;;;;;;2.30;1.10;;;;;;;22.70;38.03;95449.50;6332554;27;109937;-57
2023/10/08 06:32:50;;;;;;;1.60;1.10;;;;;;;22.81;38.26;95441.25;6321730;27;111004;-57
2023/10/08 06:36:02;;;;;;;1.50;1.00;;;;;;;22.94;38.10;95456.47;6309785;27;109057;-60
2023/10/08 06:39:11;;;;;;;1.60;1.10;;;;;;;23.05;37.78;95462.38;6322032;27;109203;-57
2023/10/08 06:42:16;;;;;;;1.75;1.10;;;;;;;23.14;37.29;95447.19;6322038;27;109146;-57
2023/10/08 06:45:22;;;;;;;1.80;1.30;;;;;;;23.18;37.78;95443.63;6330989;27;110012;-56
2023/10/08 06:48:29;;;;;;;1.90;1.30;;;;;;;23.27;37.54;95441.81;6331364;27;109173;-55
2023/10/08 06:51:32;;;;;;;1.67;1.30;;;;;;;23.34;37.49;95438.72;6317631;27;109359;-58
2023/10/08 06:54:36;;;;;;;1.60;1.10;;;;;;;23.41;37.51;95441.00;6304700;27;111599;-56
2023/10/08 06:57:39;;;;;;;1.60;1.20;;;;;;;23.50;37.04;95439.16;6314801;27;109219;-57
2023/10/08 07:00:48;;;;;;;1.50;1.10;;;;;;;23.56;37.46;95445.97;6314568;27;109016;-60
2023/10/08 07:03:56;;;;;;;1.55;1.10;;;;;;;23.60;37.27;95441.59;6314871;27;109158;-60
2023/10/08 07:07:00;;;;;;;1.80;1.10;;;;;;;23.62;37.47;95436.72;6303601;27;109139;-60
2023/10/08 07:10:05;;;;;;;1.50;1.10;;;;;;;23.69;37.38;95433.59;6314508;27;108911;-61
2023/10/08 07:13:09;;;;;;;1.60;1.00;;;;;;;23.72;36.89;95433.81;6308229;27;111674;-60
2023/10/08 07:16:17;;;;;;;1.67;1.00;;;;;;;23.78;37.22;95437.13;6282002;27;109116;-58
2023/10/08 07:19:23;;;;;;;1.50;1.10;;;;;;;23.80;37.07;95435.72;6304450;27;109991;-60
2023/10/08 07:22:28;;;;;;;1.70;1.10;;;;;;;23.83;37.04;95431.66;6314634;27;109521;-59
2023/10/08 07:25:37;;;;;;;1.38;0.90;;;;;;;23.89;37.11;95425.88;6288881;27;108813;-60
2023/10/08 07:28:41;;;;;;;1.40;0.90;;;;;;;23.92;36.88;95418.34;6279738;27;110969;-61
2023/10/08 07:31:49;;;;;;;1.23;0.80;;;;;;;23.95;37.04;95413.16;6288787;27;109393;-60
2023/10/08 07:34:57;;;;;;;1.30;0.90;;;;;;;23.97;36.80;95421.66;6288545;27;109871;-63
2023/10/08 07:38:02;;;;;;;2.47;1.83;;;;;;;23.84;37.27;95415.28;6289535;27;110268;-61
2023/10/08 07:41:06;;;;;;;5.50;3.75;;;;;;;23.67;36.86;95409.88;6303168;27;109279;-61
2023/10/08 07:44:10;;;;;;;7.53;6.82;;;;;;;23.56;36.47;95401.34;6303975;27;109055;-60
2023/10/08 07:47:15;;;;;;;9.13;8.23;;;;;;;23.47;36.58;95403.16;6310663;27;108896;-60
2023/10/08 07:50:19;;;;;;;9.95;8.30;;;;;;;23.19;36.61;95401.72;6304108;27;109382;-61
2023/10/08 07:53:22;;;;;;;11.90;7.65;;;;;;;23.20;35.97;95401.41;6305468;27;108912;-62
2023/10/08 07:56:26;;;;;;;11.93;10.63;;;;;;;23.13;34.77;95393.03;6287659;27;109028;-61
2023/10/08 07:59:29;;;;;;;12.15;9.02;;;;;;;23.06;35.23;95398.00;6299884;27;109527;-60
2023/10/08 08:02:34;;;;;;;15.30;8.70;;;;;;;22.82;36.80;95386.81;6300199;27;111300;-61
2023/10/08 08:05:40;;;;;;;10.07;8.00;;;;;;;22.93;35.87;95388.16;6299134;27;108951;-60
2023/10/08 08:08:44;;;;;;;8.80;6.68;;;;;;;23.21;36.50;95384.28;6305600;27;110156;-58
2023/10/08 08:11:48;;;;;;;11.57;6.70;;;;;;;23.37;36.11;95384.75;6309871;27;109212;-58
2023/10/08 08:14:51;;;;;;;10.23;6.60;;;;;;;23.44;36.14;95370.94;6297081;27;110791;-61
2023/10/08 08:17:56;;;;;;;9.07;5.90;;;;;;;23.53;36.45;95361.88;6305658;27;109191;-58
2023/10/08 08:21:03;;;;;;;9.75;6.20;;;;;;;23.52;36.22;95354.16;6311306;27;109082;-59
2023/10/08 08:24:06;;;;;;;10.18;6.30;;;;;;;23.47;36.15;95346.28;6296609;27;108878;-59
2023/10/08 08:27:11;;;;;;;11.52;7.38;;;;;;;23.42;35.38;95351.75;6306080;27;109117;-58
2023/10/08 08:30:15;;;;;;;10.00;8.05;;;;;;;23.47;35.20;95346.28;6311386;27;110288;-57
2023/10/08 08:33:23;;;;;;;12.88;9.95;;;;;;;23.54;35.71;95350.09;6310491;27;110253;-58
2023/10/08 08:36:28;;;;;;;10.38;8.50;;;;;;;23.64;36.08;95343.69;6292902;27;110919;-58
2023/10/08 08:39:35;;;;;;;11.82;8.88;;;;;;;23.53;36.46;95342.41;6286223;27;109066;-58
2023/10/08 08:42:38;;;;;;;11.57;7.47;;;;;;;23.48;35.81;95337.16;6294138;27;111620;-61
2023/10/08 08:45:43;;;;;;;15.63;8.00;;;;;;;23.50;36.02;95332.31;6299180;27;109384;-58
2023/10/08 08:48:52;;;;;;;18.80;6.75;;;;;;;23.53;34.74;95326.38;6279378;27;109786;-58
2023/10/08 08:52:00;;;;;;;9.27;6.50;;;;;;;23.47;34.66;95325.69;6289809;27;109977;-59
2023/10/08 08:55:08;;;;;;;14.32;6.35;;;;;;;23.28;35.55;95317.88;6300949;27;110133;-57
2023/10/08 08:58:11;;;;;;;7.85;5.70;;;;;;;23.24;34.32;95314.25;6303729;27;109547;-58
2023/10/08 09:01:18;;;;;;;7.33;5.83;;;;;;;23.16;34.23;95316.88;6306336;27;110493;-56
2023/10/08 09:04:31;;;;;;;7.43;5.90;;;;;;;23.09;34.26;95321.84;6299830;27;110951;-58
2023/10/08 09:07:36;;;;;;;8.52;6.30;;;;;;;23.05;33.65;95319.03;6303744;27;109961;-58
2023/10/08 09:10:51;;;;;;;8.77;6.10;;;;;;;23.12;33.29;95307.91;6279221;27;109928;-58
2023/10/08 09:13:55;;;;;;;7.55;5.60;;;;;;;22.97;33.05;95309.84;6290025;27;108860;-58
2023/10/08 09:16:59;;;;;;;10.70;6.30;;;;;;;22.87;32.53;95309.31;6301931;27;110184;-58
2023/10/08 09:20:06;;;;;;;7.03;5.20;;;;;;;22.83;32.66;95298.44;6296886;27;108952;-61
2023/10/08 09:23:12;;;;;;;8.80;5.60;;;;;;;22.81;32.23;95305.19;6280691;27;110009;-59
2023/10/08 09:26:18;;;;;;;5.70;5.00;;;;;;;22.68;30.21;95301.47;6301775;27;109151;-59
2023/10/08 09:29:23;;;;;;;6.00;4.80;;;;;;;22.55;30.32;95295.09;6300251;27;109582;-60
2023/10/08 09:32:26;;;;;;;8.10;5.30;;;;;;;22.55;30.64;95294.31;6286151;27;110366;-58
2023/10/08 09:35:33;;;;;;;7.82;5.90;;;;;;;22.51;30.22;95291.44;6304650;27;108835;-59
2023/10/08 09:38:36;;;;;;;8.43;5.30;;;;;;;22.48;30.23;95291.25;6309019;27;110250;-59
2023/10/08 09:41:43;;;;;;;6.00;5.10;;;;;;;22.56;29.87;95294.00;6290795;27;108927;-59
2023/10/08 09:44:47;;;;;;;7.57;5.75;;;;;;;22.45;30.77;95281.97;6288253;27;110419;-60
2023/10/08 09:47:54;;;;;;;7.10;4.50;;;;;;;-145.53;100.00;64590.91;6309945;27;109172;-60
2023/10/08 09:51:00;;;;;;;10.73;4.57;;;;;;;-145.53;100.00;64590.91;6295549;27;109964;-61
2023/10/08 09:54:10;;;;;;;5.90;3.90;;;;;;;-145.53;100.00;64590.91;6302853;27;109812;-64
2023/10/08 09:57:19;;;;;;;6.40;4.20;;;;;;;-145.53;100.00;64590.91;6297436;27;110012;-61
2023/10/08 10:00:30;;;;;;;7.00;5.20;;;;;;;-145.53;100.00;64590.91;6290747;27;109458;-62
2023/10/08 10:03:36;;;;;;;8.80;4.77;;;;;;;-145.53;100.00;64590.91;6305556;27;110078;-62
2023/10/08 10:06:44;;;;;;;6.57;4.73;;;;;;;-145.53;100.00;64590.91;6298273;27;110547;-61
2023/10/08 10:09:51;;;;;;;4.90;4.10;;;;;;;-145.53;100.00;64590.91;6309055;27;110197;-61
2023/10/08 10:12:59;;;;;;;6.53;4.27;;;;;;;-145.53;100.00;64590.91;6297183;27;111421;-59
2023/10/08 10:16:02;;;;;;;6.03;4.20;;;;;;;-145.53;100.00;64590.91;6297240;27;109953;-59
2023/10/08 10:19:06;;;;;;;4.97;4.03;;;;;;;-145.53;100.00;64590.91;6287662;27;109745;-59
2023/10/08 10:22:16;;;;;;;12.07;4.23;;;;;;;-145.53;100.00;64590.91;6305723;27;111091;-56
2023/10/08 10:25:35;;;;;;;6.70;4.77;;;;;;;-145.53;100.00;64590.91;6300343;27;109165;-57
2023/10/08 10:28:38;;;;;;;7.50;3.77;;;;;;;-145.53;100.00;64590.91;6315947;27;109183;-60
2023/10/08 10:31:44;;;;;;;5.80;3.13;;;;;;;-145.53;100.00;64590.91;6301668;27;109975;-65
2023/10/08 10:34:51;;;;;;;6.37;3.47;;;;;;;-145.53;100.00;64590.91;6308304;27;109279;-63
2023/10/08 10:38:03;;;;;;;5.30;3.60;;;;;;;-145.53;100.00;64590.91;6313917;27;109181;-62
2023/10/08 10:41:09;;;;;;;3.87;3.13;;;;;;;-145.53;100.00;64590.91;6301752;27;109659;-63
2023/10/08 10:44:13;;;;;;;4.60;2.90;;;;;;;-145.53;100.00;64590.91;6300681;27;109098;-64
2023/10/08 10:47:42;;;;;;;4.93;2.90;;;;;;;-145.53;100.00;64590.91;6316300;27;108946;-65
2023/10/08 10:51:08;;;;;;;2.90;2.50;;;;;;;-145.53;100.00;64590.91;6313817;27;109273;-64
2023/10/08 10:54:19;;;;;;;4.47;2.90;;;;;;;-145.53;100.00;64590.91;6298734;27;109115;-64
2023/10/08 10:57:26;;;;;;;4.53;3.03;;;;;;;-145.53;100.00;64590.91;6313509;27;109861;-64
2023/10/08 11:03:52;;;;;;;2.30;1.90;;;;;;;-145.53;100.00;64590.91;6285019;27;111001;-64
2023/10/08 11:06:58;;;;;;;6.73;2.77;;;;;;;-145.53;100.00;64590.91;6309598;27;109454;-64
2023/10/08 11:10:06;;;;;;;3.27;2.03;;;;;;;-145.53;100.00;64590.91;6306634;27;109229;-64
2023/10/08 11:13:14;;;;;;;4.70;2.40;;;;;;;-145.53;100.00;64590.91;6291919;27;109111;-65
2023/10/08 11:16:21;;;;;;;2.63;1.70;;;;;;;-145.53;100.00;64590.91;6286077;27;108765;-64
2023/10/08 11:19:27;;;;;;;2.77;2.27;;;;;;;-145.53;100.00;64590.91;6312984;27;109723;-64
2023/10/08 11:22:44;;;;;;;2.80;1.80;;;;;;;-145.53;100.00;64590.91;6314696;27;109101;-65
2023/10/08 11:25:59;;;;;;;3.73;2.03;;;;;;;-145.53;100.00;64590.91;6304460;27;108954;-64
2023/10/08 11:29:05;;;;;;;3.33;1.57;;;;;;;-145.53;100.00;64590.91;6310102;27;109637;-64
2023/10/08 11:32:12;;;;;;;2.57;1.60;;;;;;;-145.53;100.00;64590.91;6314966;27;109157;-65
2023/10/08 11:35:16;;;;;;;2.83;1.50;;;;;;;-145.53;100.00;64590.91;6303758;27;111551;-65
2023/10/08 11:38:22;;;;;;;2.83;1.90;;;;;;;-145.53;100.00;64590.91;6277207;27;109215;-67
2023/10/08 11:41:27;;;;;;;3.07;1.40;;;;;;;-145.53;100.00;64590.91;6303690;27;109142;-61
2023/10/08 11:44:34;;;;;;;2.27;1.50;;;;;;;-145.53;100.00;64590.91;6311660;27;110250;-61
2023/10/08 11:47:37;;;;;;;2.10;1.43;;;;;;;-145.53;100.00;64590.91;6289443;27;110162;-60
2023/10/08 11:50:40;;;;;;;3.27;1.80;;;;;;;-145.53;100.00;64590.91;6285056;27;109387;-61
2023/10/08 11:53:45;;;;;;;2.80;1.60;;;;;;;-145.53;100.00;64590.91;6295229;27;109313;-61
2023/10/08 11:56:50;;;;;;;1.90;1.40;;;;;;;-145.53;100.00;64590.91;6312552;27;109078;-60
2023/10/08 11:59:54;;;;;;;3.33;1.70;;;;;;;-145.53;100.00;64590.91;6285200;27;110039;-60
2023/10/08 12:03:01;;;;;;;2.53;1.57;;;;;;;-145.53;100.00;64590.91;6303051;27;109921;-61
2023/10/08 12:06:05;;;;;;;5.20;1.70;;;;;;;-145.53;100.00;64590.91;6301307;27;108968;-61
2023/10/08 12:09:12;;;;;;;6.63;2.87;;;;;;;-145.53;100.00;64590.91;6310404;27;109425;-62
2023/10/08 12:12:22;;;;;;;6.00;2.97;;;;;;;-145.53;100.00;64590.91;6292163;27;109238;-60
2023/10/08 12:15:34;;;;;;;3.30;2.87;;;;;;;-145.53;100.00;64590.91;6303081;27;108930;-61
2023/10/08 12:18:39;;;;;;;10.20;3.20;;;;;;;-145.53;100.00;64590.91;6300191;27;109104;-61
2023/10/08 12:21:46;;;;;;;3.73;3.17;;;;;;;-145.53;100.00;64590.91;6299114;27;109429;-61
2023/10/08 12:24:49;;;;;;;4.83;3.47;;;;;;;-145.53;100.00;64590.91;6300446;27;109192;-60
2023/10/08 12:27:53;;;;;;;7.83;3.93;;;;;;;-145.53;100.00;64590.91;6298564;27;110124;-61
2023/10/08 12:30:57;;;;;;;162.03;12.00;;;;;;;-145.53;100.00;64590.91;6310663;27;109204;-62
2023/10/08 12:34:00;;;;;;;5.77;3.30;;;;;;;-145.53;100.00;64590.91;6302160;27;109180;-61
2023/10/08 12:37:03;;;;;;;6.33;3.20;;;;;;;-145.53;100.00;64590.91;6307211;27;109172;-63
2023/10/08 12:40:22;;;;;;;7.07;3.60;;;;;;;-145.53;100.00;64590.91;6312578;27;108691;-61
2023/10/08 12:43:28;;;;;;;34.77;4.13;;;;;;;-145.53;100.00;64590.91;6309390;27;109163;-60
2023/10/08 12:46:31;;;;;;;6.83;3.50;;;;;;;-145.53;100.00;64590.91;6302101;27;110395;-59
2023/10/08 12:49:34;;;;;;;22.13;4.57;;;;;;;-145.53;100.00;64590.91;6309248;27;110028;-58
2023/10/08 12:52:42;;;;;;;69.57;6.87;;;;;;;-145.53;100.00;64590.91;6299538;27;109846;-60
2023/10/08 12:55:46;;;;;;;24.43;5.20;;;;;;;-145.53;100.00;64590.91;6308102;27;110106;-58
2023/10/08 12:58:53;;;;;;;7.40;3.83;;;;;;;-145.53;100.00;64590.91;6301704;27;109203;-59
2023/10/08 13:01:56;;;;;;;9.00;3.83;;;;;;;-145.53;100.00;64590.91;6293800;27;109040;-58
2023/10/08 13:05:00;;;;;;;6.90;4.37;;;;;;;-145.53;100.00;64590.91;6310770;27;110043;-58
2023/10/08 13:08:09;;;;;;;9.37;4.10;;;;;;;-145.53;100.00;64590.91;6307348;27;109012;-62
2023/10/08 13:11:12;;;;;;;6.50;3.93;;;;;;;-145.53;100.00;64590.91;6289471;27;110064;-59
2023/10/08 13:14:17;;;;;;;5.00;3.70;;;;;;;-145.53;100.00;64590.91;6307102;27;109426;-58
2023/10/08 13:17:20;;;;;;;9.20;4.27;;;;;;;-145.53;100.00;64590.91;6307999;27;109148;-59
2023/10/08 13:20:25;;;;;;;9.20;5.00;;;;;;;-145.53;100.00;64590.91;6297819;27;109501;-59
2023/10/08 13:23:29;;;;;;;6.93;3.77;;;;;;;-145.53;100.00;64590.91;6305411;27;109105;-59
2023/10/08 13:26:32;;;;;;;7.90;4.50;;;;;;;-145.53;100.00;64590.91;6302467;27;109005;-59
2023/10/08 13:29:37;;;;;;;14.90;4.30;;;;;;;-145.53;100.00;64590.91;6308734;27;110005;-59
2023/10/08 13:32:40;;;;;;;30.03;5.53;;;;;;;-145.53;100.00;64590.91;6286162;27;109114;-59
2023/10/08 13:35:43;;;;;;;6.83;4.70;;;;;;;-145.53;100.00;64590.91;6306451;27;109160;-59
2023/10/08 13:38:47;;;;;;;23.77;5.13;;;;;;;-145.53;100.00;64590.91;6309482;27;110640;-59
2023/10/08 13:41:52;;;;;;;7.63;5.20;;;;;;;-145.53;100.00;64590.91;6298740;27;109175;-59
2023/10/08 13:44:59;;;;;;;7.73;5.70;;;;;;;-145.53;100.00;64590.91;6299534;27;108971;-58
2023/10/08 13:48:05;;;;;;;10.50;5.10;;;;;;;-145.53;100.00;64590.91;6308227;27;110094;-59
2023/10/08 13:51:13;;;;;;;10.53;5.67;;;;;;;-145.53;100.00;64590.91;6310387;27;109046;-59
2023/10/08 13:54:17;;;;;;;6.30;4.50;;;;;;;-145.53;100.00;64590.91;6295160;27;109272;-59
2023/10/08 13:57:21;;;;;;;10.03;4.60;;;;;;;-145.53;100.00;64590.91;6310083;27;108996;-59
2023/10/08 14:00:27;;;;;;;5.90;4.40;;;;;;;-145.53;100.00;64590.91;6294519;27;109327;-65
2023/10/08 14:03:31;;;;;;;6.90;4.80;;;;;;;-145.53;100.00;64590.91;6296876;27;110510;-62
2023/10/08 14:06:35;;;;;;;5.27;4.27;;;;;;;-145.53;100.00;64590.91;6291680;27;109435;-62
2023/10/08 14:09:41;;;;;;;7.60;5.03;;;;;;;-145.53;100.00;64590.91;6314182;27;109097;-62
2023/10/08 14:12:48;;;;;;;5.93;4.70;;;;;;;-145.53;100.00;64590.91;6308600;27;109165;-62
2023/10/08 14:15:55;;;;;;;7.00;5.10;;;;;;;-145.53;100.00;64590.91;6314753;27;109042;-62
2023/10/08 14:18:59;;;;;;;9.40;4.40;;;;;;;-145.53;100.00;64590.91;6308743;27;109160;-62
2023/10/08 14:22:04;;;;;;;10.50;4.83;;;;;;;-145.53;100.00;64590.91;6301822;27;109151;-61
2023/10/08 14:25:11;;;;;;;8.80;4.20;;;;;;;-145.53;100.00;64590.91;6316778;27;109073;-62
2023/10/08 14:28:23;;;;;;;5.80;4.40;;;;;;;-145.53;100.00;64590.91;6281016;27;109254;-62
2023/10/08 14:31:28;;;;;;;5.50;4.10;;;;;;;-145.53;100.00;64590.91;6290474;27;109022;-62